createdAt,value
2022-09-10T00:01:35.676Z,14.25
2022-09-10T00:04:07.451Z,14.26
2022-09-10T00:06:35.504Z,14.30
2022-09-10T00:09:02.731Z,14.36
2022-09-10T00:11:31.688Z,14.33
2022-09-10T00:14:02.170Z,14.34
2022-09-10T00:16:31.135Z,14.34
2022-09-10T00:18:59.221Z,14.34
2022-09-10T00:21:26.442Z,14.32
2022-09-10T00:23:54.367Z,14.37
2022-09-10T00:26:25.329Z,14.40
2022-09-10T00:28:54.953Z,14.41
2022-09-10T00:31:23.609Z,14.42
2022-09-10T00:33:52.466Z,14.44
2022-09-10T00:36:27.170Z,14.45
2022-09-10T00:38:58.605Z,14.45
2022-09-10T00:41:29.491Z,14.44
2022-09-10T00:44:05.932Z,14.42
2022-09-10T00:46:50.175Z,14.44
2022-09-10T00:49:21.382Z,14.43
2022-09-10T00:51:52.105Z,14.44
2022-09-10T00:54:23.695Z,14.45
2022-09-10T00:56:53.462Z,14.45
2022-09-10T00:59:25.674Z,14.47
2022-09-10T01:01:52.967Z,14.45
2022-09-10T01:04:23.005Z,14.44
2022-09-10T01:06:53.114Z,14.45
2022-09-10T01:09:24.164Z,14.48
2022-09-10T01:12:36.093Z,14.47
2022-09-10T01:15:44.775Z,14.45
2022-09-10T01:18:18.423Z,14.45
2022-09-10T01:21:09.683Z,14.44
2022-09-10T01:24:04.411Z,14.42
2022-09-10T01:26:54.968Z,14.44
2022-09-10T01:29:53.460Z,14.43
2022-09-10T01:32:36.034Z,14.44
2022-09-10T01:35:20.142Z,14.42
2022-09-10T01:38:00.243Z,14.43
2022-09-10T01:40:31.003Z,14.41
2022-09-10T01:43:05.923Z,14.39
2022-09-10T01:45:51.245Z,14.39
2022-09-10T01:49:04.501Z,14.38
2022-09-10T01:52:03.750Z,14.36
2022-09-10T01:55:06.669Z,14.34
2022-09-10T01:57:48.765Z,14.29
2022-09-10T02:00:22.186Z,14.29
2022-09-10T02:02:51.665Z,14.27
2022-09-10T02:05:23.400Z,14.26
2022-09-10T02:08:03.710Z,14.23
2022-09-10T02:10:31.383Z,14.20
2022-09-10T02:12:58.908Z,14.17
2022-09-10T02:15:44.890Z,14.17
2022-09-10T02:18:21.853Z,14.14
2022-09-10T02:20:55.977Z,14.12
2022-09-10T02:23:31.629Z,14.11
2022-09-10T02:25:59.214Z,14.10
2022-09-10T02:28:30.211Z,14.10
2022-09-10T02:30:57.490Z,14.09
2022-09-10T02:33:24.680Z,14.13
2022-09-10T02:35:53.718Z,14.09
2022-09-10T02:38:21.478Z,14.10
2022-09-10T02:40:51.700Z,14.09
2022-09-10T02:43:18.881Z,14.10
2022-09-10T02:45:46.051Z,14.12
2022-09-10T02:48:13.421Z,14.13
2022-09-10T02:50:44.633Z,14.16
2022-09-10T02:53:13.365Z,14.18
2022-09-10T02:55:40.730Z,14.19
2022-09-10T02:58:07.895Z,14.18
2022-09-10T03:00:35.078Z,14.19
2022-09-10T03:03:03.267Z,14.19
2022-09-10T03:05:30.861Z,14.23
2022-09-10T03:07:58.085Z,14.23
2022-09-10T03:10:25.323Z,14.23
2022-09-10T03:12:53.802Z,14.25
2022-09-10T03:15:20.997Z,14.25
2022-09-10T03:17:48.160Z,14.25
2022-09-10T03:20:15.565Z,14.26
2022-09-10T03:22:42.686Z,14.26
2022-09-10T03:25:11.885Z,14.26
2022-09-10T03:27:39.510Z,14.28
2022-09-10T03:30:09.329Z,14.28
2022-09-10T03:32:37.254Z,14.30
2022-09-10T03:35:06.302Z,14.32
2022-09-10T03:37:33.506Z,14.32
2022-09-10T03:40:02.247Z,14.33
2022-09-10T03:42:29.506Z,14.33
2022-09-10T03:44:56.884Z,14.33
2022-09-10T03:47:24.165Z,14.35
2022-09-10T03:49:51.310Z,14.35
2022-09-10T03:52:18.694Z,14.34
2022-09-10T03:54:45.846Z,14.34
2022-09-10T03:57:13.423Z,14.34
2022-09-10T03:59:41.418Z,14.33
2022-09-10T04:02:10.805Z,14.34
2022-09-10T04:04:38.121Z,14.34
2022-09-10T04:07:05.402Z,14.34
2022-09-10T04:09:34.040Z,14.35
2022-09-10T04:12:02.854Z,14.34
2022-09-10T04:14:32.061Z,14.34
2022-09-10T04:17:00.818Z,14.34
2022-09-10T04:19:28.237Z,14.34
2022-09-10T04:21:57.899Z,14.39
2022-09-10T04:24:25.256Z,14.38
2022-09-10T04:26:52.440Z,14.39
2022-09-10T04:29:19.806Z,14.41
2022-09-10T04:31:47.036Z,14.40
2022-09-10T04:34:17.082Z,14.39
2022-09-10T04:36:44.278Z,14.36
2022-09-10T04:39:14.633Z,14.41
2022-09-10T04:41:43.268Z,14.39
2022-09-10T04:44:10.535Z,14.39
2022-09-10T04:46:37.896Z,14.38
2022-09-10T04:49:09.842Z,14.40
2022-09-10T04:51:37.309Z,14.40
2022-09-10T04:54:04.678Z,14.39
2022-09-10T04:56:36.576Z,14.43
2022-09-10T04:59:05.096Z,14.41
2022-09-10T05:01:35.794Z,14.39
2022-09-10T05:04:04.106Z,14.42
2022-09-10T05:06:31.639Z,14.44
2022-09-10T05:08:59.272Z,14.41
2022-09-10T05:11:27.013Z,14.42
2022-09-10T05:13:54.202Z,14.44
2022-09-10T05:16:26.139Z,14.43
2022-09-10T05:18:53.464Z,14.44
2022-09-10T05:21:20.823Z,14.43
2022-09-10T05:23:48.248Z,14.43
2022-09-10T05:26:15.512Z,14.44
2022-09-10T05:28:42.802Z,14.44
2022-09-10T05:31:12.912Z,14.42
2022-09-10T05:33:41.581Z,14.44
2022-09-10T05:36:11.634Z,14.45
2022-09-10T05:38:41.008Z,14.49
2022-09-10T05:41:11.656Z,14.49
2022-09-10T05:43:43.335Z,14.47
2022-09-10T05:46:11.601Z,14.45
2022-09-10T05:48:41.928Z,14.43
2022-09-10T05:51:11.054Z,14.43
2022-09-10T05:53:41.271Z,14.40
2022-09-10T05:56:08.520Z,14.43
2022-09-10T05:58:36.903Z,14.44
2022-09-10T06:01:04.238Z,14.45
2022-09-10T06:03:32.359Z,14.45
2022-09-10T06:06:01.844Z,14.47
2022-09-10T06:08:33.434Z,14.50
2022-09-10T06:11:07.061Z,14.50
2022-09-10T06:13:42.192Z,14.52
2022-09-10T06:16:10.133Z,14.53
2022-09-10T06:18:38.685Z,14.55
2022-09-10T06:21:13.256Z,14.58
2022-09-10T06:23:43.914Z,14.55
2022-09-10T06:26:17.200Z,14.56
2022-09-10T06:28:44.861Z,14.58
2022-09-10T06:31:17.151Z,14.58
2022-09-10T06:33:46.928Z,14.62
2022-09-10T06:36:20.258Z,14.63
2022-09-10T06:38:51.611Z,14.65
2022-09-10T06:41:19.564Z,14.65
2022-09-10T06:43:54.451Z,14.68
2022-09-10T06:49:26.188Z,14.73
2022-09-10T06:51:53.538Z,14.73
2022-09-10T06:54:20.738Z,14.72
2022-09-10T06:56:51.102Z,14.69
2022-09-10T06:59:18.635Z,14.70
2022-09-10T07:01:49.731Z,14.71
2022-09-10T07:04:18.749Z,14.74
2022-09-10T07:06:47.530Z,14.72
2022-09-10T07:09:18.793Z,14.72
2022-09-10T07:11:52.976Z,14.73
2022-09-10T07:14:20.779Z,14.74
2022-09-10T07:16:50.230Z,14.74
2022-09-10T07:19:20.870Z,14.76
2022-09-10T07:21:48.553Z,14.79
2022-09-10T07:24:16.806Z,14.84
2022-09-10T07:26:57.104Z,14.90
2022-09-10T07:29:24.423Z,14.93
2022-09-10T07:31:53.514Z,15.02
2022-09-10T07:34:23.777Z,15.04
2022-09-10T07:36:51.114Z,15.04
2022-09-10T07:39:25.365Z,15.04
2022-09-10T07:41:53.468Z,15.06
2022-09-10T07:44:24.447Z,15.08
2022-09-10T07:46:52.763Z,15.09
2022-09-10T07:49:20.809Z,15.09
2022-09-10T07:51:57.663Z,15.08
2022-09-10T07:54:28.994Z,15.02
2022-09-10T07:56:57.566Z,15.00
2022-09-10T07:59:24.833Z,14.97
2022-09-10T08:02:00.147Z,15.02
2022-09-10T08:04:36.800Z,15.03
2022-09-10T08:07:07.200Z,15.04
2022-09-10T08:09:37.476Z,15.05
2022-09-10T08:12:07.798Z,15.04
2022-09-10T08:14:38.094Z,15.05
2022-09-10T08:17:05.770Z,15.09
2022-09-10T08:19:37.343Z,15.11
2022-09-10T08:22:04.945Z,15.13
2022-09-10T08:24:41.129Z,15.16
2022-09-10T08:27:08.308Z,15.24
2022-09-10T08:29:35.601Z,15.36
2022-09-10T08:32:03.528Z,15.47
2022-09-10T08:34:32.069Z,15.51
2022-09-10T08:37:08.547Z,15.54
2022-09-10T08:39:37.600Z,15.57
2022-09-10T08:42:35.699Z,15.57
2022-09-10T08:45:15.838Z,15.60
2022-09-10T08:48:06.567Z,15.72
2022-09-10T08:50:53.162Z,15.81
2022-09-10T08:53:37.649Z,15.87
2022-09-10T08:56:14.402Z,15.87
2022-09-10T08:59:03.055Z,15.92
2022-09-10T09:01:54.715Z,15.93
2022-09-10T09:04:29.732Z,16.00
2022-09-10T09:07:04.947Z,16.00
2022-09-10T09:09:32.178Z,16.06
2022-09-10T09:12:22.656Z,16.09
2022-09-10T09:15:20.381Z,16.08
2022-09-10T09:18:45.695Z,16.11
2022-09-10T09:21:18.027Z,16.18
2022-09-10T09:24:12.698Z,16.22
2022-09-10T09:26:47.366Z,16.25
2022-09-10T09:29:22.242Z,16.34
2022-09-10T09:31:56.408Z,16.46
2022-09-10T09:34:52.310Z,16.50
2022-09-10T09:37:30.188Z,16.58
2022-09-10T09:40:33.734Z,16.65
2022-09-10T09:43:13.754Z,16.76
2022-09-10T09:45:43.976Z,16.85
2022-09-10T09:48:20.408Z,16.89
2022-09-10T09:50:53.837Z,16.91
2022-09-10T09:53:29.762Z,16.88
2022-09-10T09:56:26.642Z,16.80
2022-09-10T09:58:53.774Z,16.74
2022-09-10T10:01:24.775Z,16.65
2022-09-10T10:04:03.057Z,16.60
2022-09-10T10:06:34.696Z,16.57
2022-09-10T10:09:20.321Z,16.54
2022-09-10T10:12:08.866Z,16.55
2022-09-10T10:14:42.877Z,16.62
2022-09-10T10:17:25.194Z,16.73
2022-09-10T10:20:05.471Z,16.79
2022-09-10T10:22:32.762Z,16.87
2022-09-10T10:25:03.452Z,16.90
2022-09-10T10:27:41.501Z,16.93
2022-09-10T10:30:11.556Z,16.88
2022-09-10T10:32:55.989Z,16.80
2022-09-10T10:35:32.792Z,16.78
2022-09-10T10:38:31.952Z,16.71
2022-09-10T10:41:31.425Z,16.62
2022-09-10T10:44:10.916Z,16.56
2022-09-10T10:46:50.063Z,16.49
2022-09-10T10:49:57.376Z,16.44
2022-09-10T10:53:14.577Z,16.39
2022-09-10T10:56:23.726Z,16.34
2022-09-10T10:59:28.634Z,16.28
2022-09-10T11:02:27.037Z,16.23
2022-09-10T11:04:58.299Z,16.22
2022-09-10T11:07:40.977Z,16.16
2022-09-10T11:10:46.426Z,16.12
2022-09-10T11:13:22.193Z,16.08
2022-09-10T11:16:21.752Z,16.04
2022-09-10T11:19:12.329Z,16.03
2022-09-10T11:21:49.396Z,16.03
2022-09-10T11:24:27.014Z,16.02
2022-09-10T11:27:15.439Z,16.04
2022-09-10T11:30:12.555Z,16.06
2022-09-10T11:33:12.854Z,16.04
2022-09-10T11:35:56.238Z,16.09
2022-09-10T11:38:55.914Z,16.09
2022-09-10T11:41:29.882Z,16.17
2022-09-10T11:44:15.058Z,16.24
2022-09-10T11:47:18.895Z,16.30
2022-09-10T11:50:36.751Z,16.30
2022-09-10T11:53:07.566Z,16.40
2022-09-10T11:56:18.861Z,16.44
2022-09-10T11:59:24.390Z,16.53
2022-09-10T12:02:32.680Z,16.61
2022-09-10T12:05:36.639Z,16.78
2022-09-10T12:08:45.163Z,16.96
2022-09-10T12:11:52.517Z,17.15
2022-09-10T12:14:21.609Z,17.31
2022-09-10T12:16:57.462Z,17.39
2022-09-10T12:19:55.939Z,17.36
2022-09-10T12:22:31.497Z,17.26
2022-09-10T12:25:18.504Z,17.18
2022-09-10T12:27:47.226Z,17.09
2022-09-10T12:30:37.723Z,16.98
2022-09-10T12:33:13.666Z,16.93
2022-09-10T12:35:48.492Z,16.91
2022-09-10T12:38:56.094Z,16.91
2022-09-10T12:41:23.325Z,16.99
2022-09-10T12:43:56.941Z,17.12
2022-09-10T12:46:25.962Z,17.33
2022-09-10T12:48:56.167Z,17.46
2022-09-10T12:51:35.143Z,17.47
2022-09-10T12:54:05.117Z,17.51
2022-09-10T12:56:59.514Z,17.54
2022-09-10T13:00:07.334Z,17.60
2022-09-10T13:02:42.034Z,17.71
2022-09-10T13:05:30.380Z,17.88
2022-09-10T13:08:15.147Z,18.11
2022-09-10T13:10:59.331Z,18.33
2022-09-10T13:13:37.617Z,18.60
2022-09-10T13:16:09.447Z,18.93
2022-09-10T13:18:37.728Z,19.32
2022-09-10T13:21:23.296Z,19.46
2022-09-10T13:23:53.167Z,19.41
2022-09-10T13:26:29.186Z,19.34
2022-09-10T13:28:56.942Z,19.31
2022-09-10T13:31:44.903Z,19.21
2022-09-10T13:34:14.968Z,19.11
2022-09-10T13:37:39.600Z,19.04
2022-09-10T13:40:56.764Z,18.99
2022-09-10T13:43:53.132Z,18.94
2022-09-10T13:46:44.115Z,19.04
2022-09-10T13:49:24.629Z,19.10
2022-09-10T13:51:59.209Z,19.12
2022-09-10T13:54:48.256Z,19.12
2022-09-10T13:57:22.095Z,19.16
2022-09-10T13:59:54.716Z,19.24
2022-09-10T14:02:40.159Z,19.22
2022-09-10T14:05:28.855Z,19.16
2022-09-10T14:07:59.693Z,19.16
2022-09-10T14:10:27.443Z,19.12
2022-09-10T14:12:55.932Z,19.11
2022-09-10T14:15:31.446Z,19.09
2022-09-10T14:17:59.982Z,19.14
2022-09-10T14:20:34.595Z,19.27
2022-09-10T14:23:21.933Z,19.57
2022-09-10T14:26:23.418Z,19.73
2022-09-10T14:28:53.912Z,19.86
2022-09-10T14:31:26.994Z,19.89
2022-09-10T14:33:57.040Z,19.65
2022-09-10T14:36:27.724Z,19.00
2022-09-10T14:39:07.357Z,18.46
2022-09-10T14:41:36.390Z,18.15
2022-09-10T14:44:20.419Z,17.88
2022-09-10T14:47:14.422Z,17.52
2022-09-10T14:49:44.573Z,17.26
2022-09-10T14:52:12.343Z,17.14
2022-09-10T14:54:39.610Z,17.17
2022-09-10T14:57:14.642Z,17.26
2022-09-10T14:59:47.597Z,17.52
2022-09-10T15:02:27.240Z,18.59
2022-09-10T15:04:55.285Z,19.35
2022-09-10T15:07:25.221Z,20.06
2022-09-10T15:09:53.535Z,20.67
2022-09-10T15:12:30.776Z,21.19
2022-09-10T15:14:59.296Z,21.59
2022-09-10T15:17:26.995Z,21.97
2022-09-10T15:19:55.276Z,22.39
2022-09-10T15:22:28.717Z,22.85
2022-09-10T15:25:09.584Z,23.16
2022-09-10T15:27:46.631Z,23.40
2022-09-10T15:30:14.030Z,23.47
2022-09-10T15:32:41.180Z,23.58
2022-09-10T15:35:09.593Z,23.85
2022-09-10T15:37:36.675Z,24.13
2022-09-10T15:40:04.573Z,23.89
2022-09-10T15:42:31.861Z,23.36
2022-09-10T15:44:58.959Z,23.06
2022-09-10T15:47:28.917Z,23.46
2022-09-10T15:49:56.585Z,23.57
2022-09-10T15:52:23.887Z,23.40
2022-09-10T15:54:51.041Z,23.15
2022-09-10T15:57:19.724Z,23.24
2022-09-10T15:59:47.313Z,22.68
2022-09-10T16:02:14.460Z,22.04
2022-09-10T16:04:43.213Z,21.46
2022-09-10T16:07:10.997Z,21.04
2022-09-10T16:09:38.177Z,20.85
2022-09-10T16:12:05.631Z,20.56
2022-09-10T16:14:33.323Z,20.24
2022-09-10T16:17:01.028Z,19.97
2022-09-10T16:19:28.232Z,19.75
2022-09-10T16:21:55.483Z,19.56
2022-09-10T16:24:22.801Z,19.42
2022-09-10T16:26:49.992Z,19.29
2022-09-10T16:29:21.055Z,19.20
2022-09-10T16:31:51.255Z,19.12
2022-09-10T16:34:20.332Z,19.03
2022-09-10T16:36:51.692Z,18.94
2022-09-10T16:39:19.681Z,18.91
2022-09-10T16:41:51.057Z,18.91
2022-09-10T16:44:19.335Z,18.90
2022-09-10T16:46:47.152Z,18.89
2022-09-10T16:49:18.206Z,18.86
2022-09-10T16:51:49.010Z,18.78
2022-09-10T16:54:20.905Z,18.76
2022-09-10T16:56:51.052Z,18.74
2022-09-10T16:59:23.638Z,18.71
2022-09-10T17:01:52.002Z,18.68
2022-09-10T17:04:27.810Z,18.66
2022-09-10T17:06:57.531Z,18.63
2022-09-10T17:09:25.379Z,18.61
2022-09-10T17:11:52.684Z,18.60
2022-09-10T17:14:20.246Z,18.58
2022-09-10T17:16:48.363Z,18.59
2022-09-10T17:19:26.250Z,18.54
2022-09-10T17:21:55.678Z,18.51
2022-09-10T17:24:25.642Z,18.49
2022-09-10T17:26:55.171Z,18.46
2022-09-10T17:29:25.246Z,18.44
2022-09-10T17:31:52.527Z,18.41
2022-09-10T17:34:21.481Z,18.36
2022-09-10T17:36:49.372Z,18.37
2022-09-10T17:39:17.678Z,18.33
2022-09-10T17:41:45.209Z,18.33
2022-09-10T17:44:13.460Z,18.32
2022-09-10T17:46:42.586Z,18.28
2022-09-10T17:49:13.710Z,18.25
2022-09-10T17:51:41.878Z,18.27
2022-09-10T17:54:09.751Z,18.26
2022-09-10T17:56:38.112Z,18.26
2022-09-10T17:59:06.673Z,18.25
2022-09-10T18:01:40.058Z,18.23
2022-09-10T18:04:12.601Z,18.21
2022-09-10T18:06:40.815Z,18.17
2022-09-10T18:09:08.571Z,18.18
2022-09-10T18:11:39.890Z,18.18
2022-09-10T18:14:08.186Z,18.18
2022-09-10T18:16:37.959Z,18.18
2022-09-10T18:19:13.896Z,18.16
2022-09-10T18:21:43.814Z,18.16
2022-09-10T18:24:17.159Z,18.15
2022-09-10T18:26:50.536Z,18.16
2022-09-10T18:29:26.850Z,18.15
2022-09-10T18:31:57.467Z,18.14
2022-09-10T18:34:29.297Z,18.13
2022-09-10T18:37:00.298Z,18.08
2022-09-10T18:39:30.837Z,18.07
2022-09-10T18:42:00.880Z,18.03
2022-09-10T18:44:34.427Z,18.01
2022-09-10T18:47:01.578Z,17.99
2022-09-10T18:49:29.222Z,17.98
2022-09-10T18:51:57.368Z,17.92
2022-09-10T18:54:28.672Z,17.90
2022-09-10T18:56:57.213Z,17.89
2022-09-10T18:59:25.805Z,17.84
2022-09-10T19:01:55.794Z,17.81
2022-09-10T19:04:27.332Z,17.79
2022-09-10T19:06:55.722Z,17.74
2022-09-10T19:09:30.315Z,17.71
2022-09-10T19:12:00.239Z,17.69
2022-09-10T19:14:32.830Z,17.64
2022-09-10T19:17:01.754Z,17.60
2022-09-10T19:19:32.746Z,17.55
2022-09-10T19:22:03.610Z,17.49
2022-09-10T19:24:53.867Z,17.45
2022-09-10T19:27:18.242Z,17.37
2022-09-10T19:29:47.302Z,17.33
2022-09-10T19:32:15.176Z,17.28
2022-09-10T19:34:42.718Z,17.22
2022-09-10T19:37:09.991Z,17.16
2022-09-10T19:39:37.281Z,17.11
2022-09-10T19:42:06.733Z,17.05
2022-09-10T19:44:34.046Z,16.98
2022-09-10T19:47:04.062Z,16.96
2022-09-10T19:49:31.656Z,16.92
2022-09-10T19:51:58.818Z,16.90
2022-09-10T19:54:28.173Z,16.87
2022-09-10T19:56:56.358Z,16.82
2022-09-10T19:59:23.661Z,16.77
2022-09-10T20:01:50.968Z,16.71
2022-09-10T20:04:18.296Z,16.68
2022-09-10T20:06:47.647Z,16.63
2022-09-10T20:09:14.820Z,16.60
2022-09-10T20:11:45.303Z,16.57
2022-09-10T20:14:14.174Z,16.57
2022-09-10T20:16:46.102Z,16.53
2022-09-10T20:19:18.426Z,16.51
2022-09-10T20:21:48.247Z,16.48
2022-09-10T20:24:18.341Z,16.45
2022-09-10T20:26:46.565Z,16.41
2022-09-10T20:29:17.989Z,16.37
2022-09-10T20:31:46.770Z,16.33
2022-09-10T20:34:20.734Z,16.29
2022-09-10T20:36:51.934Z,16.28
2022-09-10T20:39:25.251Z,16.27
2022-09-10T20:41:53.142Z,16.24
2022-09-10T20:44:21.029Z,16.19
2022-09-10T20:46:48.326Z,16.13
2022-09-10T20:49:16.593Z,16.10
2022-09-10T20:51:45.029Z,16.06
2022-09-10T20:54:15.600Z,16.04
2022-09-10T20:56:43.710Z,16.03
2022-09-10T20:59:16.722Z,16.00
2022-09-10T21:01:45.857Z,15.98
2022-09-10T21:04:13.961Z,15.96
2022-09-10T21:06:41.362Z,15.95
2022-09-10T21:09:08.559Z,15.92
2022-09-10T21:11:36.788Z,15.89
2022-09-10T21:14:07.160Z,15.84
2022-09-10T21:16:41.341Z,15.81
2022-09-10T21:19:15.006Z,15.79
2022-09-10T21:21:46.126Z,15.75
2022-09-10T21:24:18.390Z,15.71
2022-09-10T21:26:45.949Z,15.70
2022-09-10T21:29:16.822Z,15.68
2022-09-10T21:31:45.366Z,15.64
2022-09-10T21:34:13.969Z,15.60
2022-09-10T21:36:42.792Z,15.58
2022-09-10T21:39:19.769Z,15.56
2022-09-10T21:41:50.675Z,15.53
2022-09-10T21:44:23.135Z,15.51
2022-09-10T21:46:51.470Z,15.48
2022-09-10T21:49:20.202Z,15.41
2022-09-10T21:51:50.857Z,15.39
2022-09-10T21:54:21.927Z,15.37
2022-09-10T21:56:50.751Z,15.36
2022-09-10T21:59:18.812Z,15.31
2022-09-10T22:01:47.355Z,15.27
2022-09-10T22:04:19.958Z,15.23
2022-09-10T22:06:48.844Z,15.19
2022-09-10T22:09:16.706Z,15.14
2022-09-10T22:11:51.913Z,15.12
2022-09-10T22:14:22.581Z,15.09
2022-09-10T22:16:52.607Z,15.04
2022-09-10T22:19:25.848Z,15.03
2022-09-10T22:21:57.303Z,15.02
2022-09-10T22:24:25.955Z,14.99
2022-09-10T22:26:53.333Z,14.99
2022-09-10T22:29:20.813Z,14.97
2022-09-10T22:31:50.076Z,14.95
2022-09-10T22:34:18.460Z,14.93
2022-09-10T22:36:47.368Z,14.92
2022-09-10T22:39:18.400Z,14.91
2022-09-10T22:41:47.903Z,14.90
2022-09-10T22:44:17.702Z,14.86
2022-09-10T22:46:44.948Z,14.85
2022-09-10T22:49:12.330Z,14.83
2022-09-10T22:51:43.407Z,14.80
2022-09-10T22:54:11.297Z,14.78
2022-09-10T22:56:39.710Z,14.76
2022-09-10T22:59:11.299Z,14.74
2022-09-10T23:01:38.856Z,14.70
2022-09-10T23:04:08.267Z,14.66
2022-09-10T23:06:38.543Z,14.64
2022-09-10T23:09:13.592Z,14.61
2022-09-10T23:11:41.936Z,14.61
2022-09-10T23:14:17.635Z,14.61
2022-09-10T23:16:51.782Z,14.61
2022-09-10T23:19:24.787Z,14.60
2022-09-10T23:21:54.829Z,14.58
2022-09-10T23:24:26.387Z,14.58
2022-09-10T23:26:53.805Z,14.56
2022-09-10T23:29:22.501Z,14.55
2022-09-10T23:31:52.880Z,14.52
2022-09-10T23:34:21.432Z,14.50
2022-09-10T23:36:49.754Z,14.49
2022-09-10T23:39:23.097Z,14.47
2022-09-10T23:41:53.519Z,14.45
2022-09-10T23:44:21.681Z,14.42
2022-09-10T23:46:49.009Z,14.38
2022-09-10T23:49:16.135Z,14.34
2022-09-10T23:51:43.295Z,14.31
2022-09-10T23:54:12.430Z,14.27
2022-09-10T23:56:40.321Z,14.26
2022-09-10T23:59:08.332Z,14.25
